Weather History for CYPR - September, 2012

Change the Weather History Date:

Wednesday, September 12, 2012

  Actual Average Record
Temperature  
Mean Temperature 52 °F -  
Max Temperature 55 °F 56 °F 69 °F (2007)
Min Temperature 50 °F 47 °F 42 °F (1999)
Degree Days  
Heating Degree Days 12    
Growing Degree Days 2 (Base 50)    
Moisture  
Dew Point 50 °F    
Average Humidity 91    
Maximum Humidity 100    
Minimum Humidity 81    
Precipitation  
Precipitation 0.24 in - - ()
Sea Level Pressure  
Sea Level Pressure 30.25 in    
Wind  
Wind Speed 12 mph ()    
Max Wind Speed 22 mph    
Max Gust Speed 32 mph    
Visibility 6.8 miles    
Events Rain    
Averages and records for this station are not official NWS values.
T = Trace of Precipitation, MM = Missing Value Source: Averaged Metar Reports

Daily Weather History Graph

Daily Weather History Graph

Search for Another Location

Airport or City:

Trip Planner

Search our weather history database for the weather conditions in past years. The results will help you decide how hot, cold, wet, or windy it might be!

Date:

Astronomy

Sep. 12, 2012 Rise Set
Actual Time 7:10 AM PDT 8:03 PM PDT
Civil Twilight 6:34 AM PDT 8:39 PM PDT
Nautical Twilight 5:50 AM PDT 9:23 PM PDT
Astronomical Twilight 5:02 AM PDT 10:10 PM PDT
Moon 3:07 AM PDT (9/12) 6:16 PM PDT (9/12)
Length of Visible Light 14h 05m
Length of Day
12h 53m
Waning Crescent, 13% of the Moon is Illuminated
Sep 12
Waning Crescent
Sep 15
New
Sep 22
First Quarter
Sep 29
Full
Oct 8
Last Quarter

Hourly Weather History & Observations

Time (PDT) Temp. Dew Point Humidity Pressure Visibility Wind Dir Wind Speed Gust Speed Precip Events Conditions
12:00 AM 51.8 °F 48.2 °F 88% 30.28 in 5.0 mi SE 11.5 mph - N/A Rain Light Rain
12:02 AM 51.8 °F 50.0 °F 94% 30.28 in 6.0 mi SE 9.2 mph - N/A Rain Light Rain
12:06 AM 51.8 °F 50.0 °F 94% 30.28 in 5.0 mi SSE 8.1 mph - N/A Rain Light Rain
12:19 AM 50.0 °F 50.0 °F 100% 30.28 in 4.0 mi SSE 11.5 mph - N/A Rain Light Rain
1:00 AM 50.0 °F 50.0 °F 100% 30.27 in 3.0 mi SE 9.2 mph - N/A Rain Light Rain
1:32 AM 50.0 °F 50.0 °F 100% 30.27 in 6.0 mi SSE 9.2 mph - N/A Rain Light Rain
1:34 AM 50.0 °F 50.0 °F 100% 30.27 in 6.0 mi SE 9.2 mph - N/A Rain Light Rain
1:35 AM 50.0 °F 50.0 °F 100% 30.27 in 6.0 mi SE 10.4 mph - N/A Rain Light Rain
1:37 AM 50.0 °F 50.0 °F 100% 30.27 in 6.0 mi SE 8.1 mph - N/A Rain Light Rain
1:39 AM 50.0 °F 50.0 °F 100% 30.27 in 7.0 mi SE 8.1 mph - N/A Rain Light Rain
1:40 AM 50.0 °F 50.0 °F 100% 30.28 in 7.0 mi SE 8.1 mph - N/A Rain Light Rain
1:43 AM 50.0 °F 50.0 °F 100% 30.28 in 7.0 mi SE 9.2 mph - N/A Rain Light Rain
1:44 AM 50.0 °F 50.0 °F 100% 30.28 in 7.0 mi SSE 9.2 mph - N/A Rain Light Rain
1:45 AM 50.0 °F 50.0 °F 100% 30.28 in 7.0 mi SSE 9.2 mph - N/A Rain Light Rain
1:46 AM 50.0 °F 50.0 °F 100% 30.27 in 7.0 mi SSE 8.1 mph - N/A Rain Light Rain
2:00 AM 50.0 °F 50.0 °F 100% 30.28 in 6.0 mi SSE 9.2 mph - N/A Rain Light Rain
2:07 AM 50.0 °F 50.0 °F 100% 30.27 in 8.0 mi SE 10.4 mph - N/A Rain Light Rain
2:45 AM 51.8 °F 50.0 °F 94% 30.27 in 9.0 mi SE 9.2 mph - N/A   Overcast
3:00 AM 51.8 °F 50.0 °F 94% 30.27 in 9.0 mi SE 8.1 mph - N/A   Overcast
3:08 AM 51.8 °F 50.0 °F 94% 30.27 in 9.0 mi SE 10.4 mph - N/A Rain Light Rain
4:00 AM 51.8 °F 50.0 °F 94% 30.26 in 9.0 mi SE 11.5 mph - N/A Rain Light Rain
4:06 AM 51.8 °F 50.0 °F 94% 30.25 in 5.0 mi SE 10.4 mph - N/A Rain Light Rain
4:18 AM 51.8 °F 50.0 °F 94% 30.25 in 6.0 mi SE 9.2 mph - N/A Rain Light Rain
4:49 AM 51.8 °F 50.0 °F 94% 30.24 in 9.0 mi SE 9.2 mph - N/A   Overcast
4:55 AM 51.8 °F 50.0 °F 94% 30.24 in 9.0 mi SE 10.4 mph - N/A Rain Light Rain
5:00 AM 52 °F 50 °F 89% 30.25 in 10 mi SE 9.2 mph - - Rain Light Rain
5:00 AM 51.8 °F 50.0 °F 94% 30.24 in 9.0 mi SSE 6.9 mph - N/A Rain Light Rain
6:00 AM 51.8 °F 50.0 °F 94% 30.24 in 9.0 mi SSE 11.5 mph 18.4 mph N/A Rain Light Rain
6:01 AM 51.8 °F 50.0 °F 94% 30.24 in 9.0 mi SSE 11.5 mph 18.4 mph N/A   Overcast
6:04 AM 51.8 °F 50.0 °F 94% 30.24 in 9.0 mi SSE 11.5 mph 18.4 mph N/A Rain Light Rain
6:36 AM 53.6 °F 50.0 °F 88% 30.25 in 9.0 mi SSE 12.7 mph 21.9 mph N/A   Overcast
6:38 AM 53.6 °F 50.0 °F 88% 30.25 in 9.0 mi SSE 10.4 mph 21.9 mph N/A Rain Light Rain
7:00 AM 53.6 °F 50.0 °F 88% 30.25 in 9.0 mi SSE 13.8 mph 20.7 mph N/A   Overcast
7:24 AM 53.6 °F 50.0 °F 88% 30.25 in 9.0 mi SSE 15.0 mph 23.0 mph N/A Rain Light Rain
7:41 AM 53.6 °F 48.2 °F 82% 30.25 in 9.0 mi SSE 13.8 mph 26.5 mph N/A   Overcast
8:00 AM 53.6 °F 48.2 °F 82% 30.25 in 9.0 mi SSE 13.8 mph 24.2 mph N/A   Overcast
8:40 AM 53.6 °F 48.2 °F 82% 30.24 in 9.0 mi SSE 15.0 mph 23.0 mph N/A   Overcast
9:00 AM 53.6 °F 50.0 °F 88% 30.24 in 9.0 mi SSE 11.5 mph 20.7 mph N/A   Overcast
9:54 AM 53.6 °F 50.0 °F 88% 30.23 in 9.0 mi SSE 16.1 mph 25.3 mph N/A   Overcast
10:00 AM 53.6 °F 50.0 °F 88% 30.22 in 9.0 mi SSE 17.3 mph 26.5 mph N/A   Overcast
11:00 AM 54 °F 50 °F 81% 30.22 in 10 mi SSE 17.3 mph - -   Clear
11:00 AM 55.4 °F 50.0 °F 82% 30.22 in 9.0 mi SSE 18.4 mph 28.8 mph N/A   Overcast
11:35 AM 55.4 °F 50.0 °F 82% 30.22 in 9.0 mi SSE 17.3 mph 28.8 mph N/A Rain Light Rain
11:48 AM 55.4 °F 50.0 °F 82% 30.22 in 9.0 mi SSE 17.3 mph 28.8 mph N/A   Overcast
12:00 PM 55.4 °F 50.0 °F 82% 30.22 in 9.0 mi SSE 18.4 mph 27.6 mph N/A   Overcast
12:57 PM 55.4 °F 50.0 °F 82% 30.23 in 9.0 mi SSE 19.6 mph 28.8 mph N/A Rain Light Rain
1:00 PM 55.4 °F 50.0 °F 82% 30.23 in 8.0 mi SSE 18.4 mph 28.8 mph N/A Rain Light Rain
1:05 PM 55.4 °F 50.0 °F 82% 30.23 in 5.0 mi SSE 15.0 mph 26.5 mph N/A Rain Light Rain
1:10 PM 53.6 °F 50.0 °F 88% 30.23 in 6.0 mi SSE 17.3 mph 25.3 mph N/A Rain Light Rain
1:13 PM 53.6 °F 50.0 °F 88% 30.23 in 5.0 mi SSE 17.3 mph 25.3 mph N/A Rain Light Rain
1:25 PM 53.6 °F 50.0 °F 88% 30.24 in 6.0 mi SSE 17.3 mph 26.5 mph N/A Rain Light Rain
1:30 PM 53.6 °F 50.0 °F 88% 30.24 in 5.0 mi SSE 18.4 mph 28.8 mph N/A Rain Light Rain
1:44 PM 53.6 °F 50.0 °F 88% 30.24 in 6.0 mi SSE 18.4 mph 28.8 mph N/A Rain Light Rain
2:00 PM 53.6 °F 50.0 °F 88% 30.23 in 9.0 mi SSE 16.1 mph 28.8 mph N/A Rain Light Rain
2:04 PM 53.6 °F 50.0 °F 88% 30.23 in 9.0 mi SSE 18.4 mph 28.8 mph N/A   Overcast
2:19 PM 53.6 °F 50.0 °F 88% 30.24 in 9.0 mi SSE 19.6 mph 31.1 mph N/A Rain Light Rain
2:41 PM 53.6 °F 50.0 °F 88% 30.23 in 9.0 mi SE 19.6 mph 31.1 mph N/A   Overcast
2:54 PM 53.6 °F 50.0 °F 88% 30.23 in 9.0 mi SE 17.3 mph 28.8 mph N/A Rain Light Rain
3:00 PM 53.6 °F 50.0 °F 88% 30.23 in 8.0 mi SSE 20.7 mph 28.8 mph N/A Rain Light Rain
3:12 PM 53.6 °F 50.0 °F 88% 30.24 in 9.0 mi SSE 21.9 mph 31.1 mph N/A   Overcast
3:24 PM 53.6 °F 50.0 °F 88% 30.23 in 9.0 mi SSE 17.3 mph 28.8 mph N/A Rain Light Rain
3:45 PM 53.6 °F 50.0 °F 88% 30.24 in 9.0 mi SE 20.7 mph 32.2 mph N/A   Overcast
3:51 PM 53.6 °F 50.0 °F 88% 30.23 in 9.0 mi SSE 19.6 mph 32.2 mph N/A Rain Light Rain
4:00 PM 53.6 °F 50.0 °F 88% 30.23 in 6.0 mi SE 17.3 mph 29.9 mph N/A Rain Light Rain
4:11 PM 53.6 °F 51.8 °F 94% 30.23 in 9.0 mi SE 17.3 mph 28.8 mph N/A   Overcast
5:00 PM 54 °F 51 °F 86% 30.23 in 10 mi SSE 18.4 mph - -   Clear
6:00 PM 55.4 °F 50.0 °F 82% 30.22 in 9.0 mi SSE 17.3 mph 26.5 mph N/A   Overcast
6:22 PM 55.4 °F 50.0 °F 82% 30.22 in 9.0 mi SSE 20.7 mph 29.9 mph N/A   Overcast
7:00 PM 55.4 °F 50.0 °F 82% 30.23 in 9.0 mi SSE 16.1 mph 25.3 mph N/A   Overcast
7:33 PM 55.4 °F 50.0 °F 82% 30.25 in 9.0 mi SSE 16.1 mph 26.5 mph N/A Rain Light Rain
7:47 PM 53.6 °F 50.0 °F 88% 30.25 in 5.0 mi SSE 13.8 mph 21.9 mph N/A Rain Light Rain
8:00 PM 53.6 °F 51.8 °F 94% 30.25 in 4.0 mi SSE 11.5 mph 23.0 mph N/A Rain Light Rain
8:26 PM 53.6 °F 51.8 °F 94% 30.25 in 3.0 mi SSE 13.8 mph 20.7 mph N/A Rain Light Rain
8:27 PM 53.6 °F 51.8 °F 94% 30.25 in 3.0 mi SSE 13.8 mph 20.7 mph N/A Rain Light Rain
8:32 PM 53.6 °F 51.8 °F 94% 30.25 in 2.5 mi SSE 12.7 mph 20.7 mph N/A Rain Rain
8:35 PM 53.6 °F 51.8 °F 94% 30.25 in 2.5 mi SSE 13.8 mph 20.7 mph N/A Rain Light Rain
8:42 PM 53.6 °F 51.8 °F 94% 30.26 in 3.0 mi SSE 13.8 mph 23.0 mph N/A Rain Light Rain
8:50 PM 53.6 °F 51.8 °F 94% 30.26 in 3.0 mi SSE 11.5 mph 21.9 mph N/A Rain Light Rain
9:07 PM 53.6 °F 51.8 °F 94% 30.25 in 3.0 mi SSE 13.8 mph 27.6 mph N/A Rain Light Rain
9:20 PM 53.6 °F 51.8 °F 94% 30.25 in 4.0 mi SSE 16.1 mph 24.2 mph N/A Rain Light Rain
9:37 PM 53.6 °F 51.8 °F 94% 30.25 in 7.0 mi SSE 15.0 mph 20.7 mph N/A Rain Light Rain
9:47 PM 53.6 °F 51.8 °F 94% 30.25 in 5.0 mi SSE 12.7 mph 25.3 mph N/A Rain Light Rain
9:56 PM 53.6 °F 51.8 °F 94% 30.25 in 2.5 mi SSE 11.5 mph 18.4 mph N/A Rain Light Rain
10:00 PM 53.6 °F 51.8 °F 94% 30.25 in 2.5 mi SSE 10.4 mph 18.4 mph N/A Rain Light Rain
10:16 PM 53.6 °F 51.8 °F 94% 30.25 in 1.8 mi SSE 9.2 mph 19.6 mph N/A Rain Light Rain
10:26 PM 53.6 °F 51.8 °F 94% 30.24 in 2.0 mi SE 11.5 mph - N/A Rain Light Rain
10:30 PM 53.6 °F 51.8 °F 94% 30.24 in 1.8 mi SE 12.7 mph - N/A Rain Light Rain
10:35 PM 53.6 °F 51.8 °F 94% 30.24 in 2.0 mi SE 12.7 mph - N/A Rain Light Rain
10:42 PM 53.6 °F 51.8 °F 94% 30.24 in 3.0 mi SSE 13.8 mph 20.7 mph N/A Rain Light Rain
11:00 PM 53 °F 51 °F 92% 30.24 in 5 mi SE 12.7 mph - - Rain Light Rain
11:00 PM 53.6 °F 51.8 °F 94% 30.24 in 5.0 mi SE 13.8 mph - N/A Rain Light Rain
11:02 PM 53.6 °F 51.8 °F 94% 30.24 in 6.0 mi SE 12.7 mph 19.6 mph N/A Rain Light Rain
11:13 PM 53.6 °F 51.8 °F 94% 30.24 in 6.0 mi SE 15.0 mph 24.2 mph N/A Rain Light Rain
11:50 PM 53.6 °F 51.8 °F 94% 30.24 in 9.0 mi SSE 18.4 mph 28.8 mph N/A   Overcast